Aérodrome :
LOGIN :

S'inscrire | Disclaimer

   EN    FR    IT 

 










Légende :    VFR   VFR Marginal   IFR   IFR Intensif   IFR Très Intensif
Visi : 
Plafond : 
>= 8 km
>= 3000ft
5 à 8 km
1000 à 3000 ft
1500m à 5 km
500 à 1000 ft
800 à 1500m
200 à 500 ft
< 800m
< 200 ft
Symboles :   Orages  Brouillard  Fortes neiges  Fortes précipitations  Vent > 20 kt
SIGMETs :   Divers  Orages  Givrage  Turbulence  Onde Orograph.  Cendres Volcan.







- Altitude de l'aérodrome : 49 ft
- Code IATA : GLZ


EHGR - Gilze-Rijen Airbase

DERNIER METAR :
  • 260504Z AUTO 21009KT 180V250 9999 -RADZ FEW015CB SCT024 BKN032 BKN044 07/05 Q1010 WHT

METARs EXPIRÉS :
  • 260455Z AUTO 20009KT 160V250 9999 -RA FEW015CB BKN025 OVC035 07/05 Q1010 RERA REDZ BLU
  • 260425Z AUTO 21011KT 180V250 9999 +DZRA FEW015CB BKN031 OVC035 07/04 Q1010 BLU
  • 260355Z AUTO 21008KT 180V280 9999 FEW017CB OVC033 08/03 Q1010 BLU
  • 260325Z AUTO 21009KT 170V240 9999 FEW016CB SCT037 OVC052 08/04 Q1010 REDZ BLU
  • 260255Z AUTO 20010KT 150V240 9999 SCT040 OVC059 08/03 Q1011 BLU
  • 260225Z AUTO 21010KT 170V250 9999 OVC070 08/03 Q1011 BLU

Prévision TAF périmée.
Pas de NOTAMs connus pour ce terrain.



MET'MAP, la Météo Aéronautique d'un coup d'oeil ! - Copyright ORBIFLY Décembre 2007 - Disclaimer

ORBIFLY MET'MAP TEAM :

Programmation & Développement : Alexandra Zaïnal
Conception & Développement : Baudouin d'Aumeries
Co-Programmation & Développement : Marc-Olivier Méhu
Soutien technique & logistique : Manuel Goepfert

Contact : metmap@orbifly.com




SOURCES & CREDITS :

   NOAA